Cottonton, Alabama
Current Conditions -  °F | °C
As of 6:58 AM on Tuesday 21 Oct 2014 (Local Time) from KLSF Reporting Station
Moderate Fog Moderate Fog  
Wind Chill: 47°   Ceiling: Unl
Heat Index: 47°   Visibility: 0.25mi
Dew Point: 47°   Wind: 1mph
Humidity: 99%   Direction: 120°ESE
Pressure: 30.03"   Gusts: NA
Location:  32.15°N, 85.07°W
Report Text: KLSF 211158Z AUTO 12001KT 1/4SM R33/P6000FT FG CLR 09/08 A3003 RMK AO2 SLP172 T00860084 10106 20082 52010
Loading
Personal Weather Stations






























Interactive Weather Map
Tropical Storm Tracking
New forecast layout! Learn more

10-Day Weather Forecast

Advertisements
Track Severe Weather on mobile